sensor_id;sensor_type;location;lat;lon;timestamp;pressure;altitude;pressure_sealevel;temperature;humidity
50702;BME280;36670;50.094;8.496;2023-04-15T00:01:23;99462.84;;;10.46;52.65
50702;BME280;36670;50.094;8.496;2023-04-15T00:03:50;99458.72;;;10.58;51.75
50702;BME280;36670;50.094;8.496;2023-04-15T00:06:22;99451.53;;;10.52;51.73
50702;BME280;36670;50.094;8.496;2023-04-15T00:08:48;99452.63;;;10.62;51.21
50702;BME280;36670;50.094;8.496;2023-04-15T00:11:15;99439.13;;;10.65;51.53
50702;BME280;36670;50.094;8.496;2023-04-15T00:13:41;99452.38;;;10.68;50.83
50702;BME280;36670;50.094;8.496;2023-04-15T00:16:07;99444.09;;;10.63;51.29
50702;BME280;36670;50.094;8.496;2023-04-15T00:18:33;99443.69;;;10.18;52.28
50702;BME280;36670;50.094;8.496;2023-04-15T00:21:00;99450.22;;;9.91;53.20
50702;BME280;36670;50.094;8.496;2023-04-15T00:23:26;99449.53;;;9.64;54.17
50702;BME280;36670;50.094;8.496;2023-04-15T00:25:52;99445.69;;;9.70;52.93
50702;BME280;36670;50.094;8.496;2023-04-15T00:28:17;99447.16;;;9.35;54.54
50702;BME280;36670;50.094;8.496;2023-04-15T00:30:43;99451.84;;;8.97;55.08
50702;BME280;36670;50.094;8.496;2023-04-15T00:33:09;99454.53;;;8.92;55.20
50702;BME280;36670;50.094;8.496;2023-04-15T00:35:34;99449.25;;;8.85;56.05
50702;BME280;36670;50.094;8.496;2023-04-15T00:38:02;99454.34;;;8.44;56.85
50702;BME280;36670;50.094;8.496;2023-04-15T00:40:27;99436.59;;;8.29;57.43
50702;BME280;36670;50.094;8.496;2023-04-15T00:42:52;99445.44;;;8.59;56.49
50702;BME280;36670;50.094;8.496;2023-04-15T00:45:18;99435.22;;;8.81;56.27
50702;BME280;36670;50.094;8.496;2023-04-15T00:47:43;99443.66;;;8.75;56.05
50702;BME280;36670;50.094;8.496;2023-04-15T00:50:10;99442.84;;;8.74;56.26
50702;BME280;36670;50.094;8.496;2023-04-15T00:52:35;99435.22;;;8.54;56.76
50702;BME280;36670;50.094;8.496;2023-04-15T00:55:01;99431.94;;;8.30;57.33
50702;BME280;36670;50.094;8.496;2023-04-15T00:57:28;99439.75;;;8.43;56.88
50702;BME280;36670;50.094;8.496;2023-04-15T00:59:54;99439.84;;;8.81;56.44
50702;BME280;36670;50.094;8.496;2023-04-15T01:02:21;99440.56;;;8.66;56.66
50702;BME280;36670;50.094;8.496;2023-04-15T01:04:46;99447.03;;;8.49;57.01
50702;BME280;36670;50.094;8.496;2023-04-15T01:07:11;99443.16;;;8.78;56.71
50702;BME280;36670;50.094;8.496;2023-04-15T01:09:37;99440.88;;;9.02;55.95
50702;BME280;36670;50.094;8.496;2023-04-15T01:12:03;99447.63;;;8.84;56.20
50702;BME280;36670;50.094;8.496;2023-04-15T01:14:29;99436.34;;;8.91;56.46
50702;BME280;36670;50.094;8.496;2023-04-15T01:16:54;99442.94;;;8.84;56.23
50702;BME280;36670;50.094;8.496;2023-04-15T01:19:20;99445.28;;;8.70;56.89
50702;BME280;36670;50.094;8.496;2023-04-15T01:21:46;99445.28;;;9.03;56.05
50702;BME280;36670;50.094;8.496;2023-04-15T01:24:12;99444.88;;;9.27;55.54
50702;BME280;36670;50.094;8.496;2023-04-15T01:26:38;99447.47;;;9.01;56.18
50702;BME280;36670;50.094;8.496;2023-04-15T01:29:04;99450.22;;;8.68;56.60
50702;BME280;36670;50.094;8.496;2023-04-15T01:31:29;99444.94;;;8.62;56.75
50702;BME280;36670;50.094;8.496;2023-04-15T01:33:54;99441.22;;;9.11;55.20
50702;BME280;36670;50.094;8.496;2023-04-15T01:36:19;99439.22;;;9.01;55.55
50702;BME280;36670;50.094;8.496;2023-04-15T01:38:45;99443.69;;;9.12;55.13
50702;BME280;36670;50.094;8.496;2023-04-15T01:41:12;99446.38;;;9.02;55.22
50702;BME280;36670;50.094;8.496;2023-04-15T01:43:37;99444.97;;;8.67;55.75
50702;BME280;36670;50.094;8.496;2023-04-15T01:46:03;99444.81;;;8.51;56.43
50702;BME280;36670;50.094;8.496;2023-04-15T01:48:28;99441.34;;;8.34;56.79
50702;BME280;36670;50.094;8.496;2023-04-15T01:50:54;99436.88;;;8.82;55.73
50702;BME280;36670;50.094;8.496;2023-04-15T01:53:22;99437.75;;;8.93;55.06
50702;BME280;36670;50.094;8.496;2023-04-15T01:55:47;99439.28;;;9.11;55.01
50702;BME280;36670;50.094;8.496;2023-04-15T01:58:12;99443.38;;;9.03;55.05
50702;BME280;36670;50.094;8.496;2023-04-15T02:00:38;99441.34;;;8.61;56.60
50702;BME280;36670;50.094;8.496;2023-04-15T02:03:03;99448.25;;;8.64;56.51
50702;BME280;36670;50.094;8.496;2023-04-15T02:05:29;99450.53;;;8.72;55.97
50702;BME280;36670;50.094;8.496;2023-04-15T02:07:54;99449.22;;;8.80;55.95
50702;BME280;36670;50.094;8.496;2023-04-15T02:10:19;99443.09;;;8.73;56.14
50702;BME280;36670;50.094;8.496;2023-04-15T02:12:45;99438.50;;;8.78;55.85
50702;BME280;36670;50.094;8.496;2023-04-15T02:15:10;99445.53;;;8.42;56.80
50702;BME280;36670;50.094;8.496;2023-04-15T02:17:36;99435.69;;;8.46;56.92
50702;BME280;36670;50.094;8.496;2023-04-15T02:20:02;99443.84;;;8.13;57.62
50702;BME280;36670;50.094;8.496;2023-04-15T02:22:30;99442.50;;;8.16;57.15
50702;BME280;36670;50.094;8.496;2023-04-15T02:24:55;99450.81;;;8.21;57.57
50702;BME280;36670;50.094;8.496;2023-04-15T02:27:20;99450.59;;;8.28;57.81
50702;BME280;36670;50.094;8.496;2023-04-15T02:29:46;99449.88;;;8.10;57.76
50702;BME280;36670;50.094;8.496;2023-04-15T02:32:12;99447.75;;;8.17;57.84
50702;BME280;36670;50.094;8.496;2023-04-15T02:34:39;99445.97;;;8.06;58.33
50702;BME280;36670;50.094;8.496;2023-04-15T02:37:08;99443.34;;;8.16;58.03
50702;BME280;36670;50.094;8.496;2023-04-15T02:39:34;99447.50;;;7.75;59.12
50702;BME280;36670;50.094;8.496;2023-04-15T02:41:59;99454.16;;;7.79;59.00
50702;BME280;36670;50.094;8.496;2023-04-15T02:44:27;99451.34;;;7.74;59.02
50702;BME280;36670;50.094;8.496;2023-04-15T02:46:53;99454.97;;;7.79;58.15
50702;BME280;36670;50.094;8.496;2023-04-15T02:49:22;99452.19;;;7.74;58.73
50702;BME280;36670;50.094;8.496;2023-04-15T02:51:47;99453.84;;;7.75;58.24
50702;BME280;36670;50.094;8.496;2023-04-15T02:54:16;99452.03;;;7.86;58.16
50702;BME280;36670;50.094;8.496;2023-04-15T02:56:41;99453.69;;;7.26;59.69
50702;BME280;36670;50.094;8.496;2023-04-15T02:59:06;99465.34;;;7.16;60.11
50702;BME280;36670;50.094;8.496;2023-04-15T03:01:32;99461.13;;;6.91;60.58
50702;BME280;36670;50.094;8.496;2023-04-15T03:03:57;99464.94;;;7.63;59.13
50702;BME280;36670;50.094;8.496;2023-04-15T03:06:22;99458.56;;;7.58;59.38
50702;BME280;36670;50.094;8.496;2023-04-15T03:08:49;99453.63;;;8.04;58.03
50702;BME280;36670;50.094;8.496;2023-04-15T03:11:14;99453.19;;;7.90;59.03
50702;BME280;36670;50.094;8.496;2023-04-15T03:13:41;99461.16;;;7.69;58.30
50702;BME280;36670;50.094;8.496;2023-04-15T03:16:07;99466.22;;;8.00;57.78
50702;BME280;36670;50.094;8.496;2023-04-15T03:18:33;99454.09;;;7.96;58.02
50702;BME280;36670;50.094;8.496;2023-04-15T03:20:58;99457.22;;;8.27;57.23
50702;BME280;36670;50.094;8.496;2023-04-15T03:23:24;99455.09;;;8.34;57.27
50702;BME280;36670;50.094;8.496;2023-04-15T03:25:49;99459.97;;;8.05;57.82
50702;BME280;36670;50.094;8.496;2023-04-15T03:28:15;99454.34;;;7.72;59.12
50702;BME280;36670;50.094;8.496;2023-04-15T03:30:40;99446.53;;;7.86;58.52
50702;BME280;36670;50.094;8.496;2023-04-15T03:33:06;99452.22;;;7.79;58.58
50702;BME280;36670;50.094;8.496;2023-04-15T03:35:32;99439.41;;;7.85;58.25
50702;BME280;36670;50.094;8.496;2023-04-15T03:37:58;99441.38;;;7.90;58.30
50702;BME280;36670;50.094;8.496;2023-04-15T03:40:23;99442.00;;;7.75;58.55
50702;BME280;36670;50.094;8.496;2023-04-15T03:42:48;99440.94;;;8.25;57.81
50702;BME280;36670;50.094;8.496;2023-04-15T03:45:13;99439.94;;;8.59;57.22
50702;BME280;36670;50.094;8.496;2023-04-15T03:47:39;99442.75;;;8.64;56.69
50702;BME280;36670;50.094;8.496;2023-04-15T03:50:05;99441.53;;;8.49;56.85
50702;BME280;36670;50.094;8.496;2023-04-15T03:52:31;99433.13;;;8.39;57.24
50702;BME280;36670;50.094;8.496;2023-04-15T03:54:56;99443.94;;;8.73;56.27
50702;BME280;36670;50.094;8.496;2023-04-15T03:57:22;99437.91;;;8.76;55.80
50702;BME280;36670;50.094;8.496;2023-04-15T03:59:47;99437.09;;;8.81;56.01
50702;BME280;36670;50.094;8.496;2023-04-15T04:02:12;99443.69;;;8.47;56.93
50702;BME280;36670;50.094;8.496;2023-04-15T04:04:37;99437.91;;;8.22;57.02
50702;BME280;36670;50.094;8.496;2023-04-15T04:07:02;99435.66;;;8.18;57.01
50702;BME280;36670;50.094;8.496;2023-04-15T04:09:28;99422.06;;;8.56;56.17
50702;BME280;36670;50.094;8.496;2023-04-15T04:11:53;99429.91;;;8.75;55.50
50702;BME280;36670;50.094;8.496;2023-04-15T04:14:18;99425.59;;;8.29;56.95
50702;BME280;36670;50.094;8.496;2023-04-15T04:16:44;99425.69;;;8.62;56.10
50702;BME280;36670;50.094;8.496;2023-04-15T04:19:09;99422.78;;;8.79;55.99
50702;BME280;36670;50.094;8.496;2023-04-15T04:21:35;99426.94;;;8.81;56.12
50702;BME280;36670;50.094;8.496;2023-04-15T04:24:00;99427.66;;;8.44;56.51
50702;BME280;36670;50.094;8.496;2023-04-15T04:26:26;99425.63;;;8.57;56.26
50702;BME280;36670;50.094;8.496;2023-04-15T04:28:51;99434.00;;;8.72;56.17
50702;BME280;36670;50.094;8.496;2023-04-15T04:31:17;99433.47;;;8.70;56.24
50702;BME280;36670;50.094;8.496;2023-04-15T04:33:42;99431.53;;;8.70;56.36
50702;BME280;36670;50.094;8.496;2023-04-15T04:36:07;99447.38;;;8.36;56.76
50702;BME280;36670;50.094;8.496;2023-04-15T04:38:33;99442.59;;;8.48;57.25
50702;BME280;36670;50.094;8.496;2023-04-15T04:40:58;99446.22;;;8.81;56.61
50702;BME280;36670;50.094;8.496;2023-04-15T04:43:23;99446.34;;;8.97;56.28
50702;BME280;36670;50.094;8.496;2023-04-15T04:45:48;99439.75;;;8.98;55.52
50702;BME280;36670;50.094;8.496;2023-04-15T04:48:14;99437.81;;;8.98;56.28
50702;BME280;36670;50.094;8.496;2023-04-15T04:50:39;99440.41;;;9.15;56.07
50702;BME280;36670;50.094;8.496;2023-04-15T04:53:05;99444.44;;;9.02;56.09
50702;BME280;36670;50.094;8.496;2023-04-15T04:55:30;99451.72;;;8.81;56.58
50702;BME280;36670;50.094;8.496;2023-04-15T04:57:56;99458.97;;;8.93;56.15
50702;BME280;36670;50.094;8.496;2023-04-15T05:00:21;99457.16;;;8.76;56.99
50702;BME280;36670;50.094;8.496;2023-04-15T05:02:47;99458.22;;;9.02;56.22
50702;BME280;36670;50.094;8.496;2023-04-15T05:05:12;99449.31;;;9.28;55.78
50702;BME280;36670;50.094;8.496;2023-04-15T05:07:37;99454.13;;;9.48;55.34
50702;BME280;36670;50.094;8.496;2023-04-15T05:10:04;99455.03;;;9.64;55.05
50702;BME280;36670;50.094;8.496;2023-04-15T05:12:30;99461.72;;;9.78;54.98
50702;BME280;36670;50.094;8.496;2023-04-15T05:14:56;99458.97;;;9.78;55.20
50702;BME280;36670;50.094;8.496;2023-04-15T05:17:21;99461.72;;;9.78;55.33
50702;BME280;36670;50.094;8.496;2023-04-15T05:19:46;99467.97;;;9.58;55.62
50702;BME280;36670;50.094;8.496;2023-04-15T05:22:12;99468.34;;;9.77;54.71
50702;BME280;36670;50.094;8.496;2023-04-15T05:24:37;99471.31;;;9.65;54.96
50702;BME280;36670;50.094;8.496;2023-04-15T05:27:02;99471.56;;;9.64;55.49
50702;BME280;36670;50.094;8.496;2023-04-15T05:29:28;99479.16;;;9.89;55.21
50702;BME280;36670;50.094;8.496;2023-04-15T05:31:53;99479.81;;;9.53;56.02
50702;BME280;36670;50.094;8.496;2023-04-15T05:34:18;99475.28;;;9.85;55.38
50702;BME280;36670;50.094;8.496;2023-04-15T05:36:44;99483.06;;;9.50;55.95
50702;BME280;36670;50.094;8.496;2023-04-15T05:39:09;99479.34;;;9.72;55.44
50702;BME280;36670;50.094;8.496;2023-04-15T05:41:34;99477.88;;;10.17;55.00
50702;BME280;36670;50.094;8.496;2023-04-15T05:44:00;99478.72;;;10.18;54.84
50702;BME280;36670;50.094;8.496;2023-04-15T05:46:25;99479.09;;;10.42;54.32
50702;BME280;36670;50.094;8.496;2023-04-15T05:48:51;99476.88;;;10.39;54.77
50702;BME280;36670;50.094;8.496;2023-04-15T05:51:16;99475.41;;;10.21;55.45
50702;BME280;36670;50.094;8.496;2023-04-15T05:53:42;99491.03;;;9.95;54.57
50702;BME280;36670;50.094;8.496;2023-04-15T05:56:07;99491.63;;;9.54;55.74
50702;BME280;36670;50.094;8.496;2023-04-15T05:58:32;99496.06;;;9.55;55.79
50702;BME280;36670;50.094;8.496;2023-04-15T06:00:58;99492.84;;;9.73;55.86
50702;BME280;36670;50.094;8.496;2023-04-15T06:03:23;99494.78;;;9.30;56.67
50702;BME280;36670;50.094;8.496;2023-04-15T06:05:48;99496.84;;;10.03;55.93
50702;BME280;36670;50.094;8.496;2023-04-15T06:08:14;99491.81;;;10.43;55.50
50702;BME280;36670;50.094;8.496;2023-04-15T06:10:39;99485.88;;;10.14;55.75
50702;BME280;36670;50.094;8.496;2023-04-15T06:13:04;99514.41;;;10.35;55.46
50702;BME280;36670;50.094;8.496;2023-04-15T06:15:30;99499.34;;;10.79;55.30
50702;BME280;36670;50.094;8.496;2023-04-15T06:17:55;99505.44;;;11.22;54.13
50702;BME280;36670;50.094;8.496;2023-04-15T06:20:21;99509.84;;;11.54;53.70
50702;BME280;36670;50.094;8.496;2023-04-15T06:22:46;99504.88;;;11.46;54.64
50702;BME280;36670;50.094;8.496;2023-04-15T06:25:11;99512.91;;;11.47;54.66
50702;BME280;36670;50.094;8.496;2023-04-15T06:27:37;99513.38;;;11.80;53.48
50702;BME280;36670;50.094;8.496;2023-04-15T06:30:03;99522.50;;;11.70;53.65
50702;BME280;36670;50.094;8.496;2023-04-15T06:32:28;99509.25;;;11.62;53.54
50702;BME280;36670;50.094;8.496;2023-04-15T06:34:53;99514.50;;;11.94;53.83
50702;BME280;36670;50.094;8.496;2023-04-15T06:37:19;99508.56;;;12.27;52.31
50702;BME280;36670;50.094;8.496;2023-04-15T06:39:44;99517.47;;;12.69;51.14
50702;BME280;36670;50.094;8.496;2023-04-15T06:42:10;99517.78;;;12.62;51.49
50702;BME280;36670;50.094;8.496;2023-04-15T06:44:36;99528.13;;;12.46;50.74
50702;BME280;36670;50.094;8.496;2023-04-15T06:47:02;99522.56;;;12.51;51.29
50702;BME280;36670;50.094;8.496;2023-04-15T06:49:27;99524.88;;;12.28;50.85
50702;BME280;36670;50.094;8.496;2023-04-15T06:51:53;99528.84;;;11.86;51.71
50702;BME280;36670;50.094;8.496;2023-04-15T06:54:18;99531.06;;;11.84;52.14
50702;BME280;36670;50.094;8.496;2023-04-15T06:56:43;99531.19;;;12.39;51.50
50702;BME280;36670;50.094;8.496;2023-04-15T06:59:09;99534.16;;;11.57;53.18
50702;BME280;36670;50.094;8.496;2023-04-15T07:01:34;99537.47;;;11.69;53.10
50702;BME280;36670;50.094;8.496;2023-04-15T07:04:00;99529.19;;;11.69;53.33
50702;BME280;36670;50.094;8.496;2023-04-15T07:06:25;99539.13;;;12.61;52.37
50702;BME280;36670;50.094;8.496;2023-04-15T07:08:51;99530.50;;;11.92;53.04
50702;BME280;36670;50.094;8.496;2023-04-15T07:11:17;99532.41;;;12.12;52.74
50702;BME280;36670;50.094;8.496;2023-04-15T07:13:42;99521.78;;;12.40;52.74
50702;BME280;36670;50.094;8.496;2023-04-15T07:16:07;99519.75;;;13.41;51.56
50702;BME280;36670;50.094;8.496;2023-04-15T07:18:33;99519.25;;;13.92;50.01
50702;BME280;36670;50.094;8.496;2023-04-15T07:20:58;99525.94;;;14.15;49.95
50702;BME280;36670;50.094;8.496;2023-04-15T07:23:23;99523.38;;;13.02;50.46
50702;BME280;36670;50.094;8.496;2023-04-15T07:25:48;99528.78;;;12.77;51.76
50702;BME280;36670;50.094;8.496;2023-04-15T07:28:14;99524.38;;;13.11;50.41
50702;BME280;36670;50.094;8.496;2023-04-15T07:30:39;99521.16;;;13.68;50.67
50702;BME280;36670;50.094;8.496;2023-04-15T07:33:05;99521.34;;;14.06;49.69
50702;BME280;36670;50.094;8.496;2023-04-15T07:35:31;99519.78;;;14.19;50.47
50702;BME280;36670;50.094;8.496;2023-04-15T07:37:57;99515.53;;;14.70;48.21
50702;BME280;36670;50.094;8.496;2023-04-15T07:40:22;99522.31;;;14.63;48.01
50702;BME280;36670;50.094;8.496;2023-04-15T07:42:48;99515.94;;;14.63;47.63
50702;BME280;36670;50.094;8.496;2023-04-15T07:45:14;99526.81;;;13.57;48.55
50702;BME280;36670;50.094;8.496;2023-04-15T07:47:40;99518.22;;;13.83;49.39
50702;BME280;36670;50.094;8.496;2023-04-15T07:50:06;99515.16;;;14.33;48.80
50702;BME280;36670;50.094;8.496;2023-04-15T07:52:31;99517.03;;;15.00;48.30
50702;BME280;36670;50.094;8.496;2023-04-15T07:55:03;99521.25;;;15.49;47.55
50702;BME280;36670;50.094;8.496;2023-04-15T07:57:29;99526.25;;;15.66;47.26
50702;BME280;36670;50.094;8.496;2023-04-15T07:59:54;99519.97;;;15.09;45.26
50702;BME280;36670;50.094;8.496;2023-04-15T08:02:19;99518.16;;;15.18;45.69
50702;BME280;36670;50.094;8.496;2023-04-15T08:04:45;99529.25;;;14.85;46.45
50702;BME280;36670;50.094;8.496;2023-04-15T08:07:10;99534.69;;;14.47;46.67
50702;BME280;36670;50.094;8.496;2023-04-15T08:09:36;99524.91;;;14.30;47.99
50702;BME280;36670;50.094;8.496;2023-04-15T08:12:02;99528.81;;;13.81;48.54
50702;BME280;36670;50.094;8.496;2023-04-15T08:14:27;99519.50;;;13.37;49.57
50702;BME280;36670;50.094;8.496;2023-04-15T08:16:53;99525.19;;;13.51;49.81
50702;BME280;36670;50.094;8.496;2023-04-15T08:19:18;99518.25;;;13.54;49.79
50702;BME280;36670;50.094;8.496;2023-04-15T08:21:44;99521.84;;;14.08;49.83
50702;BME280;36670;50.094;8.496;2023-04-15T08:24:09;99521.56;;;14.52;48.61
50702;BME280;36670;50.094;8.496;2023-04-15T08:26:35;99522.47;;;14.48;50.25
50702;BME280;36670;50.094;8.496;2023-04-15T08:29:00;99515.97;;;15.34;49.05
50702;BME280;36670;50.094;8.496;2023-04-15T08:31:28;99515.63;;;15.55;48.09
50702;BME280;36670;50.094;8.496;2023-04-15T08:33:55;99510.66;;;15.65;48.00
50702;BME280;36670;50.094;8.496;2023-04-15T08:36:21;99509.13;;;15.59;48.58
50702;BME280;36670;50.094;8.496;2023-04-15T08:38:47;99518.47;;;15.96;48.56
50702;BME280;36670;50.094;8.496;2023-04-15T08:41:22;99519.00;;;16.12;46.88
50702;BME280;36670;50.094;8.496;2023-04-15T08:43:53;99525.91;;;15.87;46.68
50702;BME280;36670;50.094;8.496;2023-04-15T08:46:20;99520.06;;;15.69;47.15
50702;BME280;36670;50.094;8.496;2023-04-15T08:48:46;99515.19;;;14.95;47.97
50702;BME280;36670;50.094;8.496;2023-04-15T08:51:12;99518.47;;;15.49;47.42
50702;BME280;36670;50.094;8.496;2023-04-15T08:53:41;99521.38;;;15.91;47.35
50702;BME280;36670;50.094;8.496;2023-04-15T08:56:08;99513.09;;;16.55;47.00
50702;BME280;36670;50.094;8.496;2023-04-15T08:58:35;99502.28;;;16.54;45.72
50702;BME280;36670;50.094;8.496;2023-04-15T09:01:00;99514.16;;;16.46;44.28
50702;BME280;36670;50.094;8.496;2023-04-15T09:03:27;99513.84;;;16.19;45.17
50702;BME280;36670;50.094;8.496;2023-04-15T09:05:53;99511.00;;;15.78;45.35
50702;BME280;36670;50.094;8.496;2023-04-15T09:08:18;99518.13;;;15.70;42.81
50702;BME280;36670;50.094;8.496;2023-04-15T09:10:43;99517.50;;;15.40;41.26
50702;BME280;36670;50.094;8.496;2023-04-15T09:13:09;99513.03;;;15.25;41.58
50702;BME280;36670;50.094;8.496;2023-04-15T09:15:37;99517.03;;;15.19;39.91
50702;BME280;36670;50.094;8.496;2023-04-15T09:18:03;99530.25;;;15.27;41.51
50702;BME280;36670;50.094;8.496;2023-04-15T09:20:28;99519.91;;;15.47;40.40
50702;BME280;36670;50.094;8.496;2023-04-15T09:22:54;99526.44;;;15.56;39.62
50702;BME280;36670;50.094;8.496;2023-04-15T09:28:01;99533.19;;;15.50;40.83
50702;BME280;36670;50.094;8.496;2023-04-15T09:30:27;99537.50;;;15.75;39.97
50702;BME280;36670;50.094;8.496;2023-04-15T09:32:55;99534.28;;;15.68;40.19
50702;BME280;36670;50.094;8.496;2023-04-15T09:35:21;99530.38;;;15.69;40.00
50702;BME280;36670;50.094;8.496;2023-04-15T09:37:48;99534.13;;;15.78;36.61
50702;BME280;36670;50.094;8.496;2023-04-15T09:40:13;99536.81;;;15.50;39.24
50702;BME280;36670;50.094;8.496;2023-04-15T09:42:54;99539.97;;;15.11;38.98
50702;BME280;36670;50.094;8.496;2023-04-15T09:45:20;99538.72;;;15.36;39.44
50702;BME280;36670;50.094;8.496;2023-04-15T09:47:46;99539.84;;;15.68;39.77
50702;BME280;36670;50.094;8.496;2023-04-15T09:50:11;99547.13;;;15.83;37.44
50702;BME280;36670;50.094;8.496;2023-04-15T09:52:42;99541.63;;;15.78;37.81
50702;BME280;36670;50.094;8.496;2023-04-15T09:55:08;99542.13;;;15.66;37.18
50702;BME280;36670;50.094;8.496;2023-04-15T09:57:35;99549.91;;;15.83;36.85
50702;BME280;36670;50.094;8.496;2023-04-15T10:00:05;99555.19;;;15.65;37.66
50702;BME280;36670;50.094;8.496;2023-04-15T10:02:31;99557.19;;;15.46;37.97
50702;BME280;36670;50.094;8.496;2023-04-15T10:04:56;99560.81;;;15.46;37.86
50702;BME280;36670;50.094;8.496;2023-04-15T10:07:22;99559.47;;;15.06;37.19
50702;BME280;36670;50.094;8.496;2023-04-15T10:09:48;99558.19;;;15.36;37.76
50702;BME280;36670;50.094;8.496;2023-04-15T10:12:16;99558.09;;;15.60;35.25
50702;BME280;36670;50.094;8.496;2023-04-15T10:14:41;99568.06;;;15.28;36.57
50702;BME280;36670;50.094;8.496;2023-04-15T10:17:10;99554.41;;;15.46;37.72
50702;BME280;36670;50.094;8.496;2023-04-15T10:19:37;99563.63;;;14.89;37.37
50702;BME280;36670;50.094;8.496;2023-04-15T10:22:03;99579.03;;;15.00;37.58
50702;BME280;36670;50.094;8.496;2023-04-15T10:24:32;99582.94;;;14.99;38.88
50702;BME280;36670;50.094;8.496;2023-04-15T10:26:59;99583.47;;;15.21;39.16
50702;BME280;36670;50.094;8.496;2023-04-15T10:29:24;99583.38;;;15.26;39.26
50702;BME280;36670;50.094;8.496;2023-04-15T10:31:53;99591.97;;;15.62;38.52
50702;BME280;36670;50.094;8.496;2023-04-15T10:34:19;99589.88;;;15.54;38.20
50702;BME280;36670;50.094;8.496;2023-04-15T10:36:45;99599.72;;;15.65;37.25
50702;BME280;36670;50.094;8.496;2023-04-15T10:39:38;99608.19;;;15.22;38.55
50702;BME280;36670;50.094;8.496;2023-04-15T10:42:17;99609.47;;;15.11;38.78
50702;BME280;36670;50.094;8.496;2023-04-15T10:44:55;99607.63;;;15.39;37.81
50702;BME280;36670;50.094;8.496;2023-04-15T10:47:21;99605.16;;;15.57;38.24
50702;BME280;36670;50.094;8.496;2023-04-15T10:49:51;99609.38;;;16.20;37.41
50702;BME280;36670;50.094;8.496;2023-04-15T10:52:22;99609.41;;;16.34;36.10
50702;BME280;36670;50.094;8.496;2023-04-15T10:54:48;99612.91;;;16.26;37.39
50702;BME280;36670;50.094;8.496;2023-04-15T10:57:21;99619.09;;;16.64;36.51
50702;BME280;36670;50.094;8.496;2023-04-15T11:02:53;99607.81;;;16.14;36.73
50702;BME280;36670;50.094;8.496;2023-04-15T11:05:20;99612.34;;;16.24;37.66
50702;BME280;36670;50.094;8.496;2023-04-15T11:07:54;99611.50;;;15.95;37.01
50702;BME280;36670;50.094;8.496;2023-04-15T11:12:49;99608.03;;;15.32;38.72
50702;BME280;36670;50.094;8.496;2023-04-15T11:17:58;99619.75;;;15.48;37.49
50702;BME280;36670;50.094;8.496;2023-04-15T11:20:24;99615.09;;;15.44;38.28
50702;BME280;36670;50.094;8.496;2023-04-15T11:22:52;99617.63;;;15.59;37.56
50702;BME280;36670;50.094;8.496;2023-04-15T11:25:30;99622.63;;;15.76;37.90
50702;BME280;36670;50.094;8.496;2023-04-15T11:27:57;99621.09;;;15.51;37.74
50702;BME280;36670;50.094;8.496;2023-04-15T11:30:25;99618.00;;;15.52;38.15
50702;BME280;36670;50.094;8.496;2023-04-15T11:32:53;99610.91;;;16.12;37.84
50702;BME280;36670;50.094;8.496;2023-04-15T11:35:18;99621.28;;;16.53;37.46
50702;BME280;36670;50.094;8.496;2023-04-15T11:37:44;99625.06;;;16.30;37.38
50702;BME280;36670;50.094;8.496;2023-04-15T11:40:10;99630.41;;;16.26;37.90
50702;BME280;36670;50.094;8.496;2023-04-15T11:42:36;99628.25;;;16.23;38.54
50702;BME280;36670;50.094;8.496;2023-04-15T11:45:12;99636.00;;;15.93;38.89
50702;BME280;36670;50.094;8.496;2023-04-15T11:47:39;99635.81;;;15.70;39.05
50702;BME280;36670;50.094;8.496;2023-04-15T11:50:19;99648.75;;;15.61;39.77
50702;BME280;36670;50.094;8.496;2023-04-15T11:52:53;99639.72;;;15.69;39.87
50702;BME280;36670;50.094;8.496;2023-04-15T11:55:18;99660.78;;;15.38;40.63
50702;BME280;36670;50.094;8.496;2023-04-15T11:57:43;99663.03;;;15.93;41.12
50702;BME280;36670;50.094;8.496;2023-04-15T12:00:09;99670.63;;;15.49;43.21
50702;BME280;36670;50.094;8.496;2023-04-15T12:02:37;99672.28;;;15.12;44.83
50702;BME280;36670;50.094;8.496;2023-04-15T12:05:06;99678.31;;;14.46;46.89
50702;BME280;36670;50.094;8.496;2023-04-15T12:07:32;99678.66;;;14.40;47.51
50702;BME280;36670;50.094;8.496;2023-04-15T12:09:57;99674.22;;;14.09;49.93
50702;BME280;36670;50.094;8.496;2023-04-15T12:12:29;99691.03;;;13.89;50.05
50702;BME280;36670;50.094;8.496;2023-04-15T12:14:57;99694.91;;;13.93;50.93
50702;BME280;36670;50.094;8.496;2023-04-15T12:17:23;99704.69;;;13.85;52.04
50702;BME280;36670;50.094;8.496;2023-04-15T12:19:55;99708.56;;;13.84;51.89
50702;BME280;36670;50.094;8.496;2023-04-15T12:22:20;99716.53;;;13.51;52.20
50702;BME280;36670;50.094;8.496;2023-04-15T12:24:53;99731.44;;;13.10;52.38
50702;BME280;36670;50.094;8.496;2023-04-15T12:27:18;99720.63;;;13.04;53.04
50702;BME280;36670;50.094;8.496;2023-04-15T12:29:45;99715.81;;;13.25;52.54
50702;BME280;36670;50.094;8.496;2023-04-15T12:32:12;99725.22;;;13.39;53.87
50702;BME280;36670;50.094;8.496;2023-04-15T12:34:49;99724.38;;;13.39;53.18
50702;BME280;36670;50.094;8.496;2023-04-15T12:37:15;99721.41;;;13.20;53.59
50702;BME280;36670;50.094;8.496;2023-04-15T12:39:42;99737.19;;;13.24;54.22
50702;BME280;36670;50.094;8.496;2023-04-15T12:42:09;99738.03;;;13.20;54.68
50702;BME280;36670;50.094;8.496;2023-04-15T12:44:35;99739.88;;;13.45;53.85
50702;BME280;36670;50.094;8.496;2023-04-15T12:47:01;99748.00;;;13.36;54.27
50702;BME280;36670;50.094;8.496;2023-04-15T12:49:27;99742.66;;;13.45;55.49
50702;BME280;36670;50.094;8.496;2023-04-15T12:51:55;99747.41;;;13.39;54.79
50702;BME280;36670;50.094;8.496;2023-04-15T12:54:21;99757.53;;;13.64;53.63
50702;BME280;36670;50.094;8.496;2023-04-15T12:56:48;99762.97;;;13.35;53.84
50702;BME280;36670;50.094;8.496;2023-04-15T12:59:15;99759.00;;;13.52;54.06
50702;BME280;36670;50.094;8.496;2023-04-15T13:01:41;99761.06;;;13.15;54.06
50702;BME280;36670;50.094;8.496;2023-04-15T13:04:07;99773.28;;;13.09;54.92
50702;BME280;36670;50.094;8.496;2023-04-15T13:06:32;99769.13;;;13.06;55.83
50702;BME280;36670;50.094;8.496;2023-04-15T13:09:01;99776.66;;;12.90;55.06
50702;BME280;36670;50.094;8.496;2023-04-15T13:11:27;99778.88;;;12.93;55.83